Flight Track Log - Related Links

Times and Time Zones

All times are in EDT time to prevent confusion due to time zone crossing. See the N4304W flight status page for this flight to view local times or setup timezone preferences in your user account.

Time Position Orientation Groundspeed Altitude Reporting Facility
EDT Latitude Longitude Course Direction KTS MPH feet Rate Location/Type
Tue 07:08:50 AM 35.2753 -75.7678 77° East 133 153 5,200  Level Washington Center
Tue 07:09:00 AM 35.3368 -75.9897 39° Northeast  Level Estimated
Tue 07:09:52 AM 35.2964 -75.7397 47° Northeast 111 128 5,700  Level Washington Center
Tue 07:10:00 AM 35.3760 -75.9936 39° Northeast  Level Estimated
Tue 07:10:49 AM 35.3214 -75.7092 45° Northeast 135 155 6,000  Level Washington Center
Tue 07:11:00 AM 35.3849 -75.9465 77° East  Level FlightAware Approximate
Tue 07:11:50 AM 35.3442 -75.6811 45° Northeast 135 155 6,000  Level Washington Center
Tue 07:12:00 AM 35.3938 -75.8995 77° East  Level FlightAware Approximate
Tue 07:12:52 AM 35.3714 -75.6481 45° Northeast 129 148 6,000  Level Washington Center
Tue 07:13:00 AM 35.4027 -75.8524 77° East  Level FlightAware Approximate
Tue 07:13:52 AM 35.3986 -75.6228 37° Northeast 124 143 6,000  Level Washington Center
Tue 07:14:00 AM 35.4116 -75.8053 77° East  Level FlightAware Approximate
Tue 07:14:50 AM 35.4300 -75.5947 36° Northeast 124 143 6,000  Level Washington Center
Tue 07:15:51 AM 35.4611 -75.5717 31° Northeast 129 148 6,000  Level Washington Center
Tue 07:16:51 AM 35.4903 -75.5486 33° Northeast 129 148 6,000  Level Washington Center
Tue 07:17:51 AM 35.5194 -75.5258 32° Northeast 123 142 6,000  Level Washington Center
Tue 07:18:52 AM 35.5508 -75.4975 36° Northeast 123 142 6,000  Level Washington Center
Tue 07:19:52 AM 35.5800 -75.4772 29° Northeast 123 142 6,000  Level Washington Center
Tue 07:20:49 AM 35.6072 -75.4464 43° Northeast 123 142 6,000  Level Washington Center
Tue 07:21:50 AM 35.6406 -75.4567 346° North 113 130 6,000  Level Washington Center
Tue 07:22:51 AM 35.6678 -75.4822 323° Northwest 106 122 6,000  Level Washington Center
Tue 07:23:51 AM 35.7011 -75.4975 340° North 117 135 6,000  Level Washington Center
Tue 07:24:51 AM 35.7344 -75.5128 340° North 117 135 6,000  Level Washington Center
Tue 07:25:50 AM 35.7658 -75.5306 335° Northwest 117 135 6,000  Level Washington Center
Tue 07:26:51 AM 35.7992 -75.5486 336° Northwest 117 135 6,000  Level Washington Center
Tue 07:27:19 AM 35.8117 -75.5664 311° West 125 144 6,000  Level Washington Center
Tue 07:27:50 AM 35.8306 -75.5664 360° North 117 135 6,000  Level Washington Center
Tue 07:28:27 AM 35.8492 -75.5869 318° Northwest 124 143 6,000  Level Washington Center
Tue 07:28:51 AM 35.8617 -75.5817 19° North 117 135 6,000  Level Washington Center
Tue 07:29:27 AM 35.8806 -75.6047 315° West 125 144 6,000  Level Washington Center
Tue 07:29:51 AM 35.8953 -75.5997 15° North 117 135 6,000  Level Washington Center
Tue 07:30:27 AM 35.9119 -75.6228 312° West 125 144 6,000  Level Washington Center
Tue 07:30:51 AM 35.9264 -75.6178 16° North 117 135 6,000  Level Washington Center
Tue 07:31:28 AM 35.9431 -75.6383 315° West 124 143 6,000  Level Washington Center
Tue 07:31:52 AM 35.9578 -75.6331 16° North 112 129 6,000  Level Washington Center
Tue 07:32:28 AM 35.9786 -75.6561 318° Northwest 124 143 6,000  Level Washington Center
Tue 07:32:49 AM 35.9911 -75.6511 18° North 112 129 6,000  Level Washington Center
Tue 07:33:29 AM 36.0119 -75.6742 318° Northwest 126 145 6,000  Level Washington Center
Tue 07:33:51 AM 36.0203 -75.6692 26° Northeast 112 129 6,000  Level Washington Center
Tue 07:34:31 AM 36.0433 -75.6897 324° Northwest 128 147 6,000  Level Washington Center
Tue 07:34:52 AM 36.0558 -75.6869 10° North 112 129 6,000  Level Washington Center
Tue 07:35:31 AM 36.0744 -75.7078 318° Northwest 128 147 6,000  Level Washington Center
Tue 07:35:52 AM 36.0872 -75.7025 18° North 117 135 6,000  Level Washington Center
Tue 07:36:31 AM 36.1081 -75.7231 321° Northwest 127 146 6,000  Level Washington Center
Tue 07:36:51 AM 36.1183 -75.7231 360° North 117 135 6,000  Level Washington Center
Tue 07:37:33 AM 36.1433 -75.7411 330° Northwest 127 146 6,000  Level Washington Center
Tue 07:38:34 AM 36.1747 -75.7592 335° Northwest 125 144 6,000  Level Washington Center
Tue 07:39:41 AM 36.2081 -75.7772 336° Northwest 127 146 6,000  Level Washington Center
Tue 07:40:42 AM 36.2433 -75.7981 335° Northwest 132 152 6,000  Level Washington Center
Tue 07:41:40 AM 36.2767 -75.8161 336° Northwest 133 153 6,000  Level Washington Center
Tue 07:42:43 AM 36.3103 -75.8317 340° North 131 151 6,000  Level Washington Center
Tue 07:43:41 AM 36.3436 -75.8497 336° Northwest 129 148 6,000  Level Washington Center
Tue 07:44:42 AM 36.3789 -75.8656 340° North 131 151 6,000  Level Washington Center
Tue 07:45:42 AM 36.4122 -75.8836 336° Northwest 130 150 6,000  Level Washington Center
Tue 07:46:43 AM 36.4456 -75.9044 333° Northwest 130 150 6,000  Level Washington Center
Tue 07:47:17 AM 36.4644 -75.9147 336° Northwest 131 151 6,000  Level Washington Center
Tue 07:48:20 AM 36.4978 -75.9331 336° Northwest 131 151 6,000  Level Washington Center
Tue 07:49:14 AM 36.5289 -75.9514 335° Northwest 131 151 6,000  Level Washington Center
Tue 07:50:13 AM 36.5644 -75.9669 341° North 131 151 6,000  Level Washington Center
Tue 07:51:15 AM 36.5956 -75.9853 335° Northwest 130 150 6,000  Level Washington Center
Tue 07:52:15 AM 36.6289 -76.0033 337° Northwest 130 150 6,000  Level Washington Center
Tue 07:53:09 AM 36.6603 -76.0192 338° Northwest 129 148 6,000  Level Washington Center
Tue 07:54:12 AM 36.6933 -76.0400 333° Northwest 132 152 6,000  Level Washington Center
Tue 07:55:12 AM 36.7267 -76.0583 336° Northwest 130 150 6,000  Level Washington Center
Tue 07:56:10 AM 36.7600 -76.0767 336° Northwest 127 146 6,000  Level Washington Center
Tue 07:57:20 AM 36.7956 -76.0978 335° Northwest 126 145 6,000  Level Washington Center
Tue 07:58:20 AM 36.8289 -76.1136 339° North 130 150 6,000  Level Washington Center
Tue 07:59:19 AM 36.8619 -76.1319 336° Northwest 129 148 6,000 151 Level Washington Center
Tue 08:00:19 AM 36.8933 -76.1503 335° Northwest 116 133 6,300 397 Climbing Washington Center
Tue 08:01:20 AM 36.9225 -76.1633 340° North 109 125 6,800 344 Climbing Washington Center
Tue 08:02:21 AM 36.9472 -76.1897 320° Northwest 126 145 7,000 98 Climbing Washington Center
Tue 08:03:22 AM 36.9786 -76.2133 329° Northwest 128 147 7,000  Level Washington Center
Tue 08:04:21 AM 37.0056 -76.2447 317° Northwest 128 147 7,000  Level Washington Center
Tue 08:05:22 AM 37.0325 -76.2708 322° Northwest 126 145 7,000  Level Washington Center
Tue 08:06:22 AM 37.0614 -76.3025 319° Northwest 128 147 7,000  Level Washington Center
Tue 08:07:26 AM 37.0883 -76.3286 322° Northwest 129 148 7,000  Level Washington Center
Tue 08:09:08 AM 37.1333 -76.3833 316° Northwest 126 145 7,000  Level Potomac TRACON
Tue 08:10:08 AM 37.1667 -76.4000 338° Northwest 130 150 7,000  Level Potomac TRACON
Tue 08:11:08 AM 37.2000 -76.4333 321° Northwest 129 148 7,000 -50 Level Potomac TRACON
Tue 08:12:08 AM 37.2167 -76.4500 321° Northwest 135 155 6,900 53 Descending Potomac TRACON
Tue 08:13:02 AM 37.2500 -76.4500 360° North 138 159 7,100 105 Climbing Potomac TRACON
Tue 08:14:02 AM 37.3000 -76.4667 345° North 143 165 7,100 -100 Level Potomac TRACON
Tue 08:15:02 AM 37.3333 -76.4667 360° North 141 162 6,900 -400 Descending Potomac TRACON
Tue 08:16:02 AM 37.3667 -76.4833 338° Northwest 162 186 6,300 -600 Descending Potomac TRACON
Tue 08:17:02 AM 37.4167 -76.5000 345° North 166 191 5,700 -626 Descending Potomac TRACON
Tue 08:17:57 AM 37.4500 -76.5000 360° North 163 188 5,100 -495 Descending Potomac TRACON
Tue 08:18:39 AM 37.4836 -76.5131 343° North 155 178 4,900 -110 Descending Washington Center
Tue 08:19:46 AM 37.5253 -76.5214 351° North 139 160 4,900  Level Washington Center
Tue 08:20:46 AM 37.5647 -76.5297 350° North 138 159 4,900  Level Washington Center
Tue 08:21:47 AM 37.6022 -76.5406 347° North 137 158 4,900  Level Washington Center
Tue 08:22:47 AM 37.6397 -76.5492 350° North 138 159 4,900  Level Washington Center
Tue 08:23:48 AM 37.6750 -76.5572 350° North 141 162 4,900  Level Washington Center
Tue 08:24:44 AM 37.7106 -76.5656 349° North 140 161 4,900  Level Washington Center
Tue 08:25:44 AM 37.7519 -76.5794 345° North 137 158 4,900 47 Level Washington Center
Tue 08:26:51 AM 37.7894 -76.5878 350° North 136 157 5,000  Climbing Washington Center
Tue 08:27:45 AM 37.8250 -76.5961 350° North 136 157 4,900 -52 Descending Washington Center
Tue 08:28:46 AM 37.8625 -76.6019 353° North 137 158 4,900  Level Washington Center
Tue 08:29:40 AM 37.8956 -76.6128 345° North 139 160 4,900  Level Washington Center
Tue 08:30:45 AM 37.9394 -76.6267 346° North 137 158 4,900  Level Washington Center
Tue 08:31:46 AM 37.9769 -76.6350 350° North 136 157 4,900  Level Washington Center
Tue 08:32:46 AM 38.0144 -76.6328 North 147 169 4,900  Level Washington Center
Tue 08:33:50 AM 38.0500 -76.6042 32° Northeast 158 182 4,900  Level Washington Center
Tue 08:34:48 AM 38.0942 -76.5786 24° Northeast 155 178 4,900  Level Washington Center
Tue 08:35:49 AM 38.1339 -76.5578 22° Northeast 153 176 4,900  Level Washington Center
Tue 08:36:50 AM 38.1694 -76.5372 24° Northeast 153 176 4,900 47 Level Washington Center
Tue 08:37:56 AM 38.2156 -76.5139 22° Northeast 152 175 5,000  Climbing Washington Center
Tue 08:38:56 AM 38.2553 -76.4961 19° North 151 174 4,900 -50 Descending Washington Center
Tue 08:39:57 AM 38.2950 -76.4728 25° Northeast 155 178 4,900  Level Washington Center
Tue 08:40:58 AM 38.3328 -76.4494 26° Northeast 155 178 4,900  Level Washington Center
Tue 08:41:59 AM 38.3747 -76.4311 19° North 155 178 4,900  Level Washington Center
Tue 08:42:59 AM 38.4122 -76.4106 23° Northeast 150 173 4,900  Level Washington Center
Tue 08:44:00 AM 38.4519 -76.3869 25° Northeast 155 178 4,900  Level Washington Center
Tue 08:46:21 AM 38.5500 -76.3333 23° Northeast 153 176 4,900 31 Level Potomac TRACON
Tue 08:47:15 AM 38.5833 -76.3167 21° North 153 176 5,000 56 Climbing Potomac TRACON
Tue 08:48:09 AM 38.6167 -76.3000 21° North 155 178 5,000  Level Potomac TRACON
Tue 08:49:09 AM 38.6500 -76.2667 38° Northeast 157 181 5,000 -50 Level Potomac TRACON
Tue 08:50:09 AM 38.7000 -76.2500 15° North 157 181 4,900 -53 Descending Potomac TRACON
Tue 08:51:03 AM 38.7333 -76.2333 21° North 154 177 4,900 53 Level Potomac TRACON
Tue 08:52:03 AM 38.7667 -76.2167 21° North 162 186 5,000 50 Climbing Potomac TRACON
Tue 08:53:03 AM 38.8167 -76.1667 38° Northeast 164 189 5,000  Level Potomac TRACON
Tue 08:54:03 AM 38.8333 -76.1333 57° Northeast 164 189 5,000 -53 Level Potomac TRACON
Tue 08:54:57 AM 38.8833 -76.1167 15° North 157 181 4,900 -421 Descending Potomac TRACON
Tue 08:55:57 AM 38.9167 -76.1333 339° North 150 173 4,200 -694 Descending Potomac TRACON
Tue 08:56:58 AM 38.9500 -76.1667 322° Northwest 148 170 3,500 -678 Descending Potomac TRACON
Tue 08:57:52 AM 38.9833 -76.1833 339° North 143 165 2,900 -316 Descending Potomac TRACON
Tue 08:58:52 AM 39.0167 -76.2167 322° Northwest 138 159 2,900 -200 Level Potomac TRACON
Tue 08:59:52 AM 39.0500 -76.2333 339° North 147 169 2,500 -522 Descending Potomac TRACON
Tue 09:00:47 AM 39.0833 -76.2667 322° Northwest 156 180 1,900 -313 Descending Potomac TRACON
Tue 09:01:47 AM 39.1333 -76.2833 346° North 147 169 1,900 53 Level Potomac TRACON
Tue 09:02:41 AM 39.1667 -76.2833 360° North 145 167 2,000  Climbing Potomac TRACON
Tue 09:03:41 AM 39.2000 -76.3000 339° North 147 169 1,900  Descending Potomac TRACON
Tue 09:04:41 AM 39.2333 -76.3167 339° North 144 166 2,000 -250 Climbing Potomac TRACON
Tue 09:05:41 AM 39.2667 -76.3333 339° North 127 146 1,400 -522 Descending Potomac TRACON
Tue 09:06:36 AM 39.2833 -76.3667 303° West 101 116 1,000 -522 Descending Potomac TRACON
Tue 09:07:36 AM 39.3000 -76.3833 322° Northwest 100 115 400 -600 Descending Potomac TRACON
Tue 09:09:00 AM 39.3167 -76.4000 339° North  Level FlightAware Approximate
Tue 09:16:00 AM 39.3257 -76.4138 339° North  Level Estimated
Tue 09:17:00 AM 39.3257 -76.4138 339° North  Level Estimated
Tue 09:18:00 AM 39.3257 -76.4138 339° North  Level Estimated
Tue 09:19:00 AM 39.3257 -76.4138 339° North  Level Estimated

Login

Don't have an account? Register now (free) for customized features, flight alerts, and more!